Accueil
METAR-TAF:

METAR-TAF

Aéroports :

Udon Thani, Thaïlande

latitude: 17-23N, longitude: 102-48E, altitude: 177 m

Observation

Le bulletin a été fait il y a 31 minutes, à 03:00 UTC
Vent 3 kt de direction variable
Température 33°C
Humidité 67%
Pression 1004 hPa
Visibilité 10 km ou plus
Quelques nuages à une hauteur de 3500 ft

METAR: VTUD 220300Z VRB03KT 9999 FEW035 33/26 Q1004 NOSIG

Heure: 10:31 (03:31 UTC)

Prévision

Le bulletin a été fait il y a 4 heures et 31 minutes, à 23:00 UTC
Prévision valable du 22 à 00 UTC au 22 à 24 UTC
Vent 5 kt de sud/sud-ouest
Visibilité: 9000 m
Quelques nuages à une hauteur de 3000 ft
Temporairement
du 22 à 08 UTC au 22 à 14 UTC
Vent 15 kt de direction variable
Quelques nuages à une hauteur de 1800 ft, Cumulonimbus.
Nuages fragmentés à une hauteur de 2500 ft
orage, pluie faible,

TAF: VTUD 212300Z 2200/2224 21005KT 9000 FEW030 TEMPO 2208/2214 VRB15KT -TSRA FEW018CB BKN025

Observations et prévisions météorologiques de plus de 4000 aéroports (messages METAR et TAF).

Les stations disponibles sont représentées par des disques jaunes et rouges sur la carte.

Passer la souris dessus pour voir le nom de la station.

Cliquer dessus pour voir les observations et prévisions météorologiques.

Pour changer de carte: cliquez sur les boutons verts avec une croix noire pour zoomer, sur le bouton vert avec un tiret pour effectuer un zoom arrière, ou sur les flèches vertes pour les cartes adjacentes.


METAR-TAF: